Time;durP1;ratioP1;P1;durP2;ratioP2;P2;SDS_P1;SDS_P2;PMS_P1;PMS_P2;Temp;Humidity;BMP_temperature;BMP_pressure;BME280_temperature;BME280_humidity;BME280_pressure;Samples;Min_cycle;Max_cycle;Signal;HPM_P1;HPM_P2
2022/03/01 00:01:58;;;;;;;;;48.33;39.67;;;;;7.95;45.73;102007.00;5071557;27;45519;-79
2022/03/01 00:04:23;;;;;;;;;46.67;38.67;;;;;8.01;45.98;102022.09;5065417;28;45398;-77
2022/03/01 00:06:49;;;;;;;;;48.67;39.67;;;;;8.01;46.58;102019.47;5078460;27;45333;-78
2022/03/01 00:09:14;;;;;;;;;56.00;44.67;;;;;7.98;46.80;102028.09;5080554;27;45224;-78
2022/03/01 00:11:40;;;;;;;;;49.00;42.00;;;;;7.91;46.66;102017.31;5099051;27;45297;-76
2022/03/01 00:14:06;;;;;;;;;48.33;42.33;;;;;7.88;46.32;102006.72;5099029;27;45307;-79
2022/03/01 00:16:32;;;;;;;;;51.00;40.33;;;;;7.62;46.42;101964.63;5096284;27;46360;-78
2022/03/01 00:18:59;;;;;;;;;53.33;43.67;;;;;7.78;46.20;101989.72;5072377;27;45239;-76
2022/03/01 00:21:25;;;;;;;;;58.00;41.33;;;;;7.97;46.33;102026.31;5057953;28;45176;-78
2022/03/01 00:23:52;;;;;;;;;47.00;39.67;;;;;7.98;47.04;102024.59;5058021;28;45466;-74
2022/03/01 00:26:17;;;;;;;;;47.00;41.33;;;;;7.77;46.97;101993.19;5060805;28;47592;-76
2022/03/01 00:28:44;;;;;;;;;50.00;43.00;;;;;7.99;46.37;102023.75;5072862;27;45243;-76
2022/03/01 00:31:09;;;;;;;;;45.67;41.33;;;;;8.00;47.23;102015.03;5061605;27;45430;-75
2022/03/01 00:33:35;;;;;;;;;47.33;39.67;;;;;8.01;47.61;102009.00;5065348;28;45347;-77
2022/03/01 00:36:00;;;;;;;;;43.33;38.33;;;;;7.98;47.79;102007.13;5065781;27;45944;-76
2022/03/01 00:38:26;;;;;;;;;53.00;44.00;;;;;7.85;47.80;101989.13;5072493;27;45454;-77
2022/03/01 00:40:52;;;;;;;;;45.33;39.67;;;;;7.93;47.66;102002.56;5057736;28;45429;-74
2022/03/01 00:43:18;;;;;;;;;55.67;42.67;;;;;7.91;46.78;101997.25;5067983;27;45449;-75
2022/03/01 00:45:43;;;;;;;;;44.33;38.67;;;;;7.78;47.00;101980.97;5063866;27;46268;-76
2022/03/01 00:48:09;;;;;;;;;51.67;39.67;;;;;7.87;46.78;101999.69;5059450;28;45690;-78
2022/03/01 00:50:34;;;;;;;;;55.33;40.00;;;;;7.87;47.73;102002.31;5073000;27;45248;-76
2022/03/01 00:53:00;;;;;;;;;56.00;43.00;;;;;7.87;47.20;102016.31;5069637;28;45504;-77
2022/03/01 00:55:25;;;;;;;;;50.00;42.33;;;;;7.87;47.38;102016.31;5059911;27;46307;-77
2022/03/01 00:57:51;;;;;;;;;54.00;43.33;;;;;7.86;46.50;102009.28;5076796;27;45410;-76
2022/03/01 01:00:18;;;;;;;;;51.67;44.00;;;;;7.70;46.89;101985.91;5069615;27;45553;-77
2022/03/01 01:02:44;;;;;;;;;50.00;37.33;;;;;7.88;47.38;102023.34;5042138;28;45447;-76
2022/03/01 01:05:10;;;;;;;;;54.00;44.00;;;;;7.78;46.69;102008.09;5071053;27;45337;-76
2022/03/01 01:07:35;;;;;;;;;42.67;37.00;;;;;7.86;47.63;102029.38;5097685;27;45432;-76
2022/03/01 01:10:01;;;;;;;;;49.00;41.00;;;;;7.85;46.70;102020.63;5078060;27;45353;-77
2022/03/01 01:12:27;;;;;;;;;41.67;35.00;;;;;7.19;47.47;101909.63;5057424;28;45534;-77
2022/03/01 01:14:52;;;;;;;;;55.67;43.33;;;;;7.80;47.21;102013.38;5038902;28;47911;-78
2022/03/01 01:17:17;;;;;;;;;42.00;38.33;;;;;7.79;47.45;102006.34;5076538;27;45264;-76
2022/03/01 01:19:43;;;;;;;;;53.33;41.00;;;;;7.51;47.52;101963.31;5098176;27;45152;-77
2022/03/01 01:24:52;;;;;;;;;49.67;43.00;;;;;7.47;47.53;101952.66;5081383;27;45759;-77
2022/03/01 01:27:18;;;;;;;;;44.67;38.67;;;;;7.54;47.66;101970.41;5070070;27;45577;-77
2022/03/01 01:29:43;;;;;;;;;42.33;36.67;;;;;7.64;47.69;101993.56;5077332;27;45433;-75
2022/03/01 01:32:09;;;;;;;;;42.67;37.33;;;;;7.36;46.70;101947.00;5085078;27;45519;-79
2022/03/01 01:34:34;;;;;;;;;40.00;36.00;;;;;7.65;47.13;102001.47;5076341;28;46992;-77
2022/03/01 01:36:59;;;;;;;;;40.33;37.33;;;;;7.37;47.15;101954.03;5075658;27;45840;-76
2022/03/01 01:39:25;;;;;;;;;51.33;38.67;;;;;7.42;47.61;101961.22;5077795;27;46682;-75
2022/03/01 01:41:50;;;;;;;;;43.67;38.00;;;;;7.22;47.76;101927.19;5074851;27;45459;-76
2022/03/01 01:44:16;;;;;;;;;44.33;39.33;;;;;7.33;47.13;101947.75;5080047;27;45833;-75
2022/03/01 01:46:42;;;;;;;;;48.33;41.00;;;;;7.59;47.07;101993.34;5081909;27;45389;-76
2022/03/01 01:49:07;;;;;;;;;48.33;41.00;;;;;7.59;47.62;102002.94;5099246;27;45295;-77
2022/03/01 01:51:32;;;;;;;;;55.00;39.67;;;;;7.57;47.42;102002.00;5100048;27;45522;-77
2022/03/01 01:53:58;;;;;;;;;47.67;40.00;;;;;7.56;47.41;102005.47;5088350;27;46294;-76
2022/03/01 01:56:23;;;;;;;;;45.00;39.67;;;;;7.55;46.92;102001.06;5078900;27;45438;-77
2022/03/01 01:58:49;;;;;;;;;37.00;33.33;;;;;7.55;47.08;102006.31;5076343;27;45469;-75
2022/03/01 02:01:15;;;;;;;;;52.33;42.33;;;;;7.55;47.52;102011.53;5075503;27;45349;-78
2022/03/01 02:03:40;;;;;;;;;42.00;37.67;;;;;7.56;47.62;102013.34;5088837;27;45428;-77
2022/03/01 02:06:06;;;;;;;;;42.33;37.00;;;;;7.56;47.51;102013.34;5092698;27;45504;-76
2022/03/01 02:08:32;;;;;;;;;50.33;41.00;;;;;7.49;47.60;102003.41;5100278;27;45310;-77
2022/03/01 02:10:58;;;;;;;;;41.33;36.67;;;;;7.36;48.14;101978.44;5093342;27;45302;-76
2022/03/01 02:13:24;;;;;;;;;45.67;41.67;;;;;7.40;47.24;101994.34;5079248;27;46373;-75
2022/03/01 02:15:50;;;;;;;;;44.67;39.00;;;;;7.23;47.32;101961.31;5075010;27;45379;-78
2022/03/01 02:18:17;;;;;;;;;48.00;41.00;;;;;7.47;48.09;101998.13;5070645;27;45224;-76
2022/03/01 02:20:42;;;;;;;;;56.33;43.67;;;;;7.43;48.12;101998.81;5072512;27;45475;-76
2022/03/01 02:23:11;;;;;;;;;47.67;38.33;;;;;7.22;47.93;101966.50;5073596;27;45951;-73
2022/03/01 02:25:38;;;;;;;;;56.00;42.33;;;;;7.42;48.89;102002.28;5079216;27;46084;-73
2022/03/01 02:28:05;;;;;;;;;40.33;35.00;;;;;7.33;48.39;101994.94;5079573;27;45381;-72
2022/03/01 02:30:30;;;;;;;;;36.67;33.00;;;;;7.45;47.84;102001.53;5083935;27;45436;-76
2022/03/01 02:32:56;;;;;;;;;44.67;39.00;;;;;7.47;48.21;101998.13;5077379;28;45979;-76
2022/03/01 02:35:22;;;;;;;;;49.67;40.67;;;;;7.48;48.83;101999.91;5076198;27;45406;-77
2022/03/01 02:37:48;;;;;;;;;45.33;38.33;;;;;7.51;48.17;101993.88;5090827;27;47713;-76
2022/03/01 02:40:14;;;;;;;;;44.00;37.00;;;;;7.35;48.35;101961.84;5060799;28;45501;-75
2022/03/01 02:42:41;;;;;;;;;46.67;41.67;;;;;7.57;48.67;101999.38;5082780;27;46996;-77
2022/03/01 02:45:10;;;;;;;;;44.00;38.67;;;;;7.57;48.26;102000.28;5080177;27;45321;-77
2022/03/01 02:47:36;;;;;;;;;42.00;39.00;;;;;7.60;47.52;102004.75;5080215;27;45321;-76
2022/03/01 02:50:03;;;;;;;;;51.33;40.00;;;;;7.61;48.06;101993.41;5081180;27;45386;-76
2022/03/01 02:52:28;;;;;;;;;43.00;39.00;;;;;7.37;48.35;101959.25;5080857;27;45464;-78
2022/03/01 02:54:53;;;;;;;;;45.67;39.33;;;;;7.26;48.62;101950.06;5077468;28;45322;-77
2022/03/01 02:57:19;;;;;;;;;45.33;41.00;;;;;7.52;48.41;101999.19;5084039;27;45528;-77
2022/03/01 02:59:45;;;;;;;;;49.00;43.33;;;;;7.37;48.35;101967.13;5082268;27;45501;-77
2022/03/01 03:02:12;;;;;;;;;49.00;41.33;;;;;7.26;47.42;101950.06;5083977;27;45456;-74
2022/03/01 03:04:38;;;;;;;;;43.33;39.67;;;;;7.56;48.09;102011.59;5084583;27;45443;-73
2022/03/01 03:07:04;;;;;;;;;48.33;41.00;;;;;7.55;48.04;102016.78;5084024;27;46025;-77
2022/03/01 03:09:30;;;;;;;;;56.00;43.33;;;;;7.34;47.70;101985.34;5089328;27;45199;-76
2022/03/01 03:11:55;;;;;;;;;53.33;40.00;;;;;7.23;47.82;101968.28;5080328;27;46342;-78
2022/03/01 03:14:20;;;;;;;;;50.33;39.67;;;;;7.51;47.36;102018.38;5079846;27;45517;-77
2022/03/01 03:16:46;;;;;;;;;43.00;38.00;;;;;7.53;47.73;102013.19;5078778;27;45271;-77
2022/03/01 03:19:15;;;;;;;;;52.00;41.00;;;;;7.51;47.55;102007.00;5086394;27;45430;-78
2022/03/01 03:21:41;;;;;;;;;45.67;41.67;;;;;7.49;48.39;102006.94;5067518;27;46289;-77
2022/03/01 03:24:06;;;;;;;;;47.67;41.00;;;;;7.02;48.53;101922.03;5082081;27;45449;-77
2022/03/01 03:26:32;;;;;;;;;44.00;38.00;;;;;7.47;47.87;101994.59;5080225;27;45354;-77
2022/03/01 03:28:57;;;;;;;;;55.33;40.67;;;;;7.12;46.96;101934.69;5088965;27;45345;-75
2022/03/01 03:31:23;;;;;;;;;50.33;44.67;;;;;7.42;47.25;101981.28;5067867;28;48072;-78
2022/03/01 03:33:48;;;;;;;;;43.33;38.33;;;;;7.34;47.94;101956.50;5089869;27;45505;-76
2022/03/01 03:36:13;;;;;;;;;45.67;39.00;;;;;7.56;48.26;102001.13;5080966;27;45282;-77
2022/03/01 03:38:39;;;;;;;;;40.67;36.67;;;;;7.35;47.90;101961.84;5094773;27;45358;-77
2022/03/01 03:41:04;;;;;;;;;45.00;37.00;;;;;7.37;48.09;101957.53;5071869;28;46102;-77
2022/03/01 03:43:30;;;;;;;;;48.33;39.33;;;;;7.55;47.70;101990.56;5057257;27;45954;-75
2022/03/01 03:45:56;;;;;;;;;53.67;41.67;;;;;7.58;47.48;102001.16;5097405;27;45356;-75
2022/03/01 03:48:21;;;;;;;;;42.33;38.33;;;;;7.56;47.81;101992.34;5097357;27;45433;-76
2022/03/01 03:50:47;;;;;;;;;45.00;40.00;;;;;7.45;47.99;101975.31;5078750;27;46541;-76
2022/03/01 03:53:12;;;;;;;;;52.33;43.00;;;;;7.53;47.05;101982.63;5081361;27;45517;-76
2022/03/01 03:55:38;;;;;;;;;46.67;38.33;;;;;7.49;47.06;101983.34;5093909;27;45164;-74
2022/03/01 03:58:03;;;;;;;;;42.67;37.67;;;;;7.42;47.45;101968.19;5078801;27;45538;-75
2022/03/01 04:00:29;;;;;;;;;46.33;40.33;;;;;7.56;47.36;101993.25;5087651;27;46316;-76
2022/03/01 04:02:54;;;;;;;;;44.33;39.33;;;;;7.55;47.12;101993.19;5069007;27;45420;-76
2022/03/01 04:05:20;;;;;;;;;44.00;40.00;;;;;7.43;46.90;101970.88;5077901;27;45302;-77
2022/03/01 04:07:47;;;;;;;;;35.00;32.67;;;;;7.59;47.32;101997.72;5078623;27;45282;-77
2022/03/01 04:10:13;;;;;;;;;41.00;38.33;;;;;7.48;47.44;101972.78;5081179;27;46720;-76
2022/03/01 04:12:39;;;;;;;;;54.00;39.00;;;;;7.57;47.59;101988.91;5087279;27;45472;-74
2022/03/01 04:15:07;;;;;;;;;41.67;36.00;;;;;7.49;47.55;101979.81;5083366;27;45390;-76
2022/03/01 04:17:34;;;;;;;;;49.67;40.67;;;;;7.13;46.80;101938.19;5089562;27;45477;-74
2022/03/01 04:19:59;;;;;;;;;45.67;39.67;;;;;6.92;47.27;101908.50;5098175;27;45353;-77
2022/03/01 04:22:25;;;;;;;;;36.00;32.33;;;;;7.23;47.83;101966.56;5053087;27;45570;-76
2022/03/01 04:24:50;;;;;;;;;41.33;38.00;;;;;7.21;47.97;101970.84;5078001;27;46678;-76
2022/03/01 04:27:17;;;;;;;;;36.67;36.67;;;;;7.23;47.69;101968.28;5065328;28;45323;-76
2022/03/01 04:29:43;;;;;;;;;42.00;38.67;;;;;7.21;46.95;101964.72;5076639;27;46321;-77
2022/03/01 04:32:09;;;;;;;;;31.33;31.33;;;;;7.20;46.95;101961.19;5076843;28;45623;-77
2022/03/01 04:34:35;;;;;;;;;43.67;39.00;;;;;7.03;47.24;101944.78;5078023;27;45241;-76
2022/03/01 04:37:00;;;;;;;;;38.33;36.67;;;;;7.12;46.71;101950.41;5076207;28;45411;-75
2022/03/01 04:39:26;;;;;;;;;43.67;37.00;;;;;7.18;46.28;101962.88;5068797;27;47181;-78
2022/03/01 04:41:51;;;;;;;;;40.33;35.67;;;;;7.28;46.84;101979.88;5085769;27;45329;-77
2022/03/01 04:44:16;;;;;;;;;45.00;39.67;;;;;7.35;46.22;101988.03;5085355;27;45493;-78
2022/03/01 04:46:43;;;;;;;;;41.67;37.67;;;;;7.33;46.70;101976.56;5081891;27;45430;-77
2022/03/01 04:49:09;;;;;;;;;33.33;33.00;;;;;7.44;46.14;101987.50;5073110;27;46946;-76
2022/03/01 04:51:34;;;;;;;;;33.33;31.33;;;;;7.42;46.56;101970.81;5079395;27;46367;-78
2022/03/01 04:54:00;;;;;;;;;46.00;40.67;;;;;7.47;46.62;101981.50;5077439;27;45529;-77
2022/03/01 04:56:25;;;;;;;;;42.67;37.00;;;;;7.53;46.16;101990.47;5074001;27;45524;-77
2022/03/01 04:58:52;;;;;;;;;39.00;37.00;;;;;7.58;46.58;101994.19;5073374;27;46961;-77
2022/03/01 05:01:17;;;;;;;;;50.67;41.00;;;;;7.51;45.35;101963.31;5077011;28;46847;-77
2022/03/01 05:03:43;;;;;;;;;38.00;36.67;;;;;7.50;46.10;101961.53;5088605;27;45429;-78
2022/03/01 05:06:09;;;;;;;;;42.00;35.67;;;;;7.61;45.29;101964.56;5093959;27;45405;-77
2022/03/01 05:08:34;;;;;;;;;45.00;40.00;;;;;7.21;45.62;101888.72;5075464;27;46403;-78
2022/03/01 05:11:01;;;;;;;;;43.33;38.33;;;;;7.69;45.58;101969.28;5094212;27;45338;-77
2022/03/01 05:13:27;;;;;;;;;37.00;34.33;;;;;7.70;45.68;101964.91;5097454;27;45297;-77
2022/03/01 05:15:53;;;;;;;;;35.33;35.33;;;;;7.71;45.58;101964.09;5088058;27;45385;-77
2022/03/01 05:18:18;;;;;;;;;48.00;37.00;;;;;7.50;45.59;101937.03;5081017;27;45449;-76
2022/03/01 05:20:44;;;;;;;;;39.00;37.00;;;;;7.57;45.68;101958.31;5085552;27;45303;-76
2022/03/01 05:23:10;;;;;;;;;38.00;35.33;;;;;7.64;45.16;101964.72;5073064;27;45634;-76
2022/03/01 05:25:35;;;;;;;;;40.00;36.33;;;;;7.63;45.64;101979.56;5075937;27;45482;-77
2022/03/01 05:28:00;;;;;;;;;47.67;37.00;;;;;7.55;45.68;101964.34;5083319;27;45377;-77
2022/03/01 05:30:26;;;;;;;;;39.67;35.33;;;;;7.64;46.90;101976.09;5085287;27;45520;-76
2022/03/01 05:32:54;;;;;;;;;36.33;34.67;;;;;7.55;46.94;101949.50;5084828;27;45493;-77
2022/03/01 05:35:23;;;;;;;;;37.67;32.67;;;;;7.69;46.47;101965.75;5097415;27;45318;-78
2022/03/01 05:37:52;;;;;;;;;44.00;38.33;;;;;7.51;46.87;101939.72;5085913;27;47229;-77
2022/03/01 05:40:18;;;;;;;;;49.33;38.67;;;;;7.59;46.88;101954.03;5077239;27;45430;-75
2022/03/01 05:42:44;;;;;;;;;52.33;41.33;;;;;7.67;46.55;101962.19;5077411;28;45398;-76
2022/03/01 05:45:11;;;;;;;;;54.67;40.00;;;;;7.64;46.45;101954.22;5081587;27;45242;-78
2022/03/01 05:47:37;;;;;;;;;45.67;38.00;;;;;7.56;46.22;101961.78;5062968;28;47265;-76
2022/03/01 05:50:03;;;;;;;;;42.33;37.00;;;;;7.52;46.65;101961.59;5075155;28;45399;-78
2022/03/01 05:52:29;;;;;;;;;55.67;41.00;;;;;7.50;46.16;101943.16;5078331;27;45350;-77
2022/03/01 05:54:54;;;;;;;;;35.33;33.67;;;;;7.70;46.50;101965.81;5094316;27;45497;-78
2022/03/01 05:57:20;;;;;;;;;36.33;34.33;;;;;7.62;46.31;101953.22;5094822;27;46180;-79
2022/03/01 05:59:45;;;;;;;;;43.00;39.00;;;;;7.45;46.52;101923.75;5075920;28;45361;-80
2022/03/01 06:02:11;;;;;;;;;43.67;39.00;;;;;7.63;46.33;101955.94;5106856;27;45283;-77
2022/03/01 06:04:37;;;;;;;;;46.67;36.33;;;;;7.54;46.06;101933.69;5098073;27;45729;-79
2022/03/01 06:07:02;;;;;;;;;42.33;39.00;;;;;7.68;46.55;101954.38;5094989;27;46454;-78
2022/03/01 06:09:28;;;;;;;;;43.67;37.67;;;;;7.65;46.05;101949.03;5102760;27;45220;-81
2022/03/01 06:11:53;;;;;;;;;48.00;40.67;;;;;7.78;46.00;101959.97;5092927;27;45436;-77
2022/03/01 06:14:19;;;;;;;;;41.33;35.33;;;;;7.65;46.17;101930.66;5100601;27;45398;-79
2022/03/01 06:16:44;;;;;;;;;35.00;31.33;;;;;7.86;45.92;101969.03;5090273;27;46224;-76
2022/03/01 06:19:11;;;;;;;;;43.75;36.75;;;;;7.89;45.94;101966.53;5079700;27;45417;-79
2022/03/01 06:21:37;;;;;;;;;41.00;35.67;;;;;7.91;45.74;101967.47;5080933;27;46048;-78
2022/03/01 06:24:04;;;;;;;;;50.00;38.00;;;;;7.90;45.53;101974.44;5079960;27;45214;-80
2022/03/01 06:26:29;;;;;;;;;26.33;21.67;;;;;7.90;45.76;101971.81;5078523;27;46205;-79
2022/03/01 06:28:55;;;;;;;;;43.00;37.00;;;;;7.93;44.94;101973.69;5081799;27;45412;-74
2022/03/01 06:31:20;;;;;;;;;34.00;34.00;;;;;7.67;45.17;101925.47;5086558;27;45419;-79
2022/03/01 06:33:46;;;;;;;;;44.00;37.33;;;;;7.97;45.84;101984.34;5088338;27;45498;-78
2022/03/01 06:36:12;;;;;;;;;42.00;36.33;;;;;7.95;45.63;101975.53;5083854;27;45621;-77
2022/03/01 06:38:38;;;;;;;;;38.50;32.50;;;;;7.95;45.62;101980.78;5085126;27;45594;-76
2022/03/01 06:41:04;;;;;;;;;38.75;37.25;;;;;8.04;45.41;102002.97;5080116;27;45449;-79
2022/03/01 06:43:29;;;;;;;;;39.00;37.00;;;;;7.96;44.92;101989.53;5081891;27;45402;-78
2022/03/01 06:45:54;;;;;;;;;39.67;37.00;;;;;7.84;45.88;101955.88;5081582;27;45421;-78
2022/03/01 06:48:20;;;;;;;;;48.25;40.25;;;;;7.79;45.74;101953.91;5059499;28;45212;-79
2022/03/01 06:50:45;;;;;;;;;41.33;35.00;;;;;7.82;45.23;101949.69;5076117;27;45719;-78
2022/03/01 06:53:13;;;;;;;;;38.75;34.50;;;;;8.08;45.78;101983.84;5080738;27;45228;-79
2022/03/01 06:55:40;;;;;;;;;48.50;38.75;;;;;7.98;45.37;101970.38;5081385;27;46195;-78
2022/03/01 06:58:06;;;;;;;;;44.25;39.00;;;;;8.13;45.11;102003.31;5085572;27;45275;-78
2022/03/01 07:00:31;;;;;;;;;44.67;39.33;;;;;8.11;45.84;102004.97;5058255;28;45453;-78
2022/03/01 07:02:57;;;;;;;;;47.00;38.00;;;;;8.05;45.85;101995.13;5089928;27;45441;-78
2022/03/01 07:05:23;;;;;;;;;50.67;43.33;;;;;7.78;45.51;101953.00;5096164;27;45929;-79
2022/03/01 07:07:49;;;;;;;;;37.33;34.00;;;;;8.07;46.31;102008.31;5089968;27;45506;-78
2022/03/01 07:10:15;;;;;;;;;51.67;40.00;;;;;8.08;46.10;102005.72;5084826;27;45372;-76
2022/03/01 07:12:42;;;;;;;;;53.33;43.00;;;;;7.94;45.80;101999.97;5079842;27;45537;-75
2022/03/01 07:15:08;;;;;;;;;54.00;38.67;;;;;8.05;46.27;102013.50;5078697;27;45216;-78
2022/03/01 07:17:34;;;;;;;;;44.67;38.67;;;;;7.98;46.27;102016.72;5082612;27;45503;-77
2022/03/01 07:19:59;;;;;;;;;49.00;41.33;;;;;8.07;46.42;102031.94;5084443;27;45495;-76
2022/03/01 07:22:25;;;;;;;;;45.33;40.33;;;;;8.03;46.43;102015.19;5079982;27;45439;-78
2022/03/01 07:24:51;;;;;;;;;43.00;39.00;;;;;7.99;46.94;102021.13;5058590;28;46063;-80
2022/03/01 07:27:16;;;;;;;;;51.00;41.67;;;;;7.90;46.47;102003.31;5069007;28;45433;-78
2022/03/01 07:29:42;;;;;;;;;46.67;39.00;;;;;7.89;46.56;101988.41;5078226;27;45468;-74
2022/03/01 07:32:09;;;;;;;;;47.33;41.00;;;;;8.10;46.51;102008.44;5074419;27;45497;-76
2022/03/01 07:34:35;;;;;;;;;55.33;43.33;;;;;8.17;46.94;102015.69;5077077;28;47205;-79
2022/03/01 07:37:01;;;;;;;;;48.67;40.00;;;;;8.24;46.58;102020.34;5076827;28;45220;-79
2022/03/01 07:39:27;;;;;;;;;55.00;45.00;;;;;8.31;46.31;102013.59;5076570;27;45196;-77
2022/03/01 07:41:52;;;;;;;;;51.67;41.00;;;;;8.32;46.62;102010.13;5074600;27;45700;-75
2022/03/01 07:44:19;;;;;;;;;45.00;39.00;;;;;8.32;46.36;101991.75;5076093;27;45312;-80
2022/03/01 07:46:46;;;;;;;;;53.33;43.33;;;;;8.53;46.59;102022.34;5076407;27;45586;-80
2022/03/01 07:49:11;;;;;;;;;46.00;40.00;;;;;8.65;46.17;102026.22;5074374;27;45480;-78
2022/03/01 07:51:37;;;;;;;;;51.00;41.33;;;;;8.70;46.02;102011.53;5077530;28;45440;-77
2022/03/01 07:54:04;;;;;;;;;44.67;37.00;;;;;8.46;46.13;101970.41;5075304;27;46555;-83
2022/03/01 07:56:29;;;;;;;;;49.00;42.67;;;;;8.82;46.15;102012.84;5078221;27;45386;-84
2022/03/01 07:58:54;;;;;;;;;56.00;47.67;;;;;8.85;45.75;101998.94;5060211;28;45220;-75
2022/03/01 08:01:21;;;;;;;;;56.67;45.00;;;;;8.94;45.65;101996.66;5073666;27;45478;-80
2022/03/01 08:03:47;;;;;;;;;50.67;40.67;;;;;9.15;45.16;102009.59;5076550;27;46019;-80
2022/03/01 08:06:13;;;;;;;;;45.50;39.50;;;;;9.11;44.59;101998.06;5076037;27;45386;-75
2022/03/01 08:08:39;;;;;;;;;51.75;42.75;;;;;9.29;44.54;102010.94;5075787;27;45421;-78
2022/03/01 08:11:07;;;;;;;;;50.00;43.33;;;;;9.17;45.17;102000.03;5075435;27;45619;-78
2022/03/01 08:13:34;;;;;;;;;57.67;46.00;;;;;9.22;44.91;102018.59;5058535;28;47350;-76
2022/03/01 08:16:00;;;;;;;;;55.00;45.33;;;;;9.14;45.27;102026.22;5075769;27;45342;-79
2022/03/01 08:18:26;;;;;;;;;56.33;46.00;;;;;9.23;44.99;102023.91;5074847;27;45359;-72
2022/03/01 08:20:51;;;;;;;;;57.25;44.75;;;;;9.36;44.23;102017.31;5077345;27;45610;-78
2022/03/01 08:23:17;;;;;;;;;56.00;44.00;;;;;9.57;44.21;102020.63;5074324;27;46095;-74
2022/03/01 08:25:43;;;;;;;;;57.00;43.00;;;;;9.71;44.01;102037.75;5075970;27;45242;-74
2022/03/01 08:28:08;;;;;;;;;50.00;42.67;;;;;9.81;43.93;102041.56;5075399;27;45327;-78
2022/03/01 08:30:35;;;;;;;;;60.33;46.00;;;;;9.81;43.77;102011.72;5076133;27;45480;-75
2022/03/01 08:33:02;;;;;;;;;56.67;44.00;;;;;9.49;43.70;101958.97;5056504;28;48184;-75
2022/03/01 08:35:28;;;;;;;;;52.00;43.75;;;;;9.69;43.75;102014.88;5069729;27;45430;-74
2022/03/01 08:37:54;;;;;;;;;48.00;39.00;;;;;9.61;43.96;101992.69;5055351;27;45516;-74
2022/03/01 08:40:21;;;;;;;;;50.75;43.25;;;;;9.81;43.30;102022.25;5073326;28;45668;-79
2022/03/01 08:42:47;;;;;;;;;54.50;43.00;;;;;9.82;43.88;102022.28;5057400;28;48383;-76
2022/03/01 08:45:13;;;;;;;;;42.50;39.00;;;;;9.99;43.41;102014.91;5073000;27;45505;-76
2022/03/01 08:47:40;;;;;;;;;47.25;42.25;;;;;10.14;43.30;102011.84;5075989;27;45465;-78
2022/03/01 08:50:06;;;;;;;;;52.50;43.50;;;;;10.35;42.80;102009.00;5071244;27;45478;-79
2022/03/01 08:52:32;;;;;;;;;49.50;43.00;;;;;10.64;41.67;102018.59;5071552;27;47512;-79
2022/03/01 08:54:57;;;;;;;;;41.50;36.00;;;;;10.85;41.30;102013.91;5087843;27;45490;-78
2022/03/01 08:57:22;;;;;;;;;58.25;44.00;;;;;11.22;41.85;102024.50;5071493;27;46095;-79
2022/03/01 08:59:48;;;;;;;;;47.25;42.00;;;;;11.33;40.66;102021.28;5075825;27;45409;-80
2022/03/01 09:02:17;;;;;;;;;49.00;40.25;;;;;11.46;40.17;102034.78;5074883;27;46012;-79
2022/03/01 09:04:43;;;;;;;;;55.50;42.75;;;;;11.44;40.23;102021.53;5054954;28;45508;-82
2022/03/01 09:07:08;;;;;;;;;53.50;41.25;;;;;11.30;40.18;101993.94;5055445;28;45248;-77
2022/03/01 09:09:34;;;;;;;;;51.25;41.25;;;;;11.50;40.37;102034.91;5056473;28;45429;-77
2022/03/01 09:11:59;;;;;;;;;50.00;41.25;;;;;11.52;40.42;102011.19;5056784;28;46031;-76
2022/03/01 09:14:25;;;;;;;;;54.00;42.00;;;;;11.32;39.82;102003.66;5056330;28;45567;-76
2022/03/01 09:16:50;;;;;;;;;48.00;40.50;;;;;11.55;40.44;102041.19;5056069;28;45313;-80
2022/03/01 09:19:16;;;;;;;;;55.50;46.25;;;;;11.45;40.16;102017.16;5055509;28;45533;-78
2022/03/01 09:21:42;;;;;;;;;54.25;45.00;;;;;11.53;40.07;102034.06;5053095;28;45468;-80
2022/03/01 09:24:08;;;;;;;;;56.25;45.25;;;;;11.54;40.56;102039.41;5045866;28;45354;-78
2022/03/01 09:26:34;;;;;;;;;54.25;42.00;;;;;11.33;40.82;102018.63;5039397;28;47032;-82
2022/03/01 09:29:00;;;;;;;;;55.75;45.25;;;;;11.43;40.90;102027.66;5053952;27;45634;-82
2022/03/01 09:31:25;;;;;;;;;44.75;38.25;;;;;11.36;41.60;102031.03;5050836;28;46645;-81
2022/03/01 09:33:51;;;;;;;;;53.25;42.25;;;;;11.41;40.95;102006.53;5074631;27;45346;-81
2022/03/01 09:36:19;;;;;;;;;53.50;42.25;;;;;11.42;40.65;101954.66;5059737;28;45327;-76
2022/03/01 09:38:45;;;;;;;;;53.00;44.25;;;;;12.01;39.65;101999.16;5061715;28;45488;-79
2022/03/01 09:41:12;;;;;;;;;54.75;44.75;;;;;12.04;39.69;101996.56;5046484;28;46932;-81
2022/03/01 09:43:39;;;;;;;;;47.25;38.00;;;;;12.49;38.73;102017.78;5051262;28;45566;-79
2022/03/01 09:46:06;;;;;;;;;53.25;40.75;;;;;12.96;38.15;102000.16;5065357;28;45249;-75
2022/03/01 09:48:32;;;;;;;;;52.75;41.25;;;;;13.53;37.56;102007.31;5059379;28;45291;-80
2022/03/01 09:51:01;;;;;;;;;54.25;44.25;;;;;13.79;36.89;101965.34;5057868;28;46152;-78
2022/03/01 09:53:27;;;;;;;;;53.25;43.50;;;;;14.43;35.46;102007.69;5056603;28;45409;-79
2022/03/01 09:55:54;;;;;;;;;46.75;40.25;;;;;15.08;34.68;101935.84;5063096;28;45498;-80
2022/03/01 09:58:20;;;;;;;;;46.50;39.75;;;;;16.14;33.04;101999.41;5063351;27;45495;-83
2022/03/01 10:00:45;;;;;;;;;49.00;40.00;;;;;17.03;31.10;101958.00;5063062;27;47252;-82
2022/03/01 10:03:15;;;;;;;;;42.75;38.50;;;;;16.99;31.30;101992.59;5054673;28;45695;-82
2022/03/01 10:05:42;;;;;;;;;41.25;36.75;;;;;17.12;31.45;101962.41;5077439;27;45484;-81
2022/03/01 10:08:12;;;;;;;;;44.75;39.00;;;;;18.67;29.33;102009.13;5080571;28;45457;-81
2022/03/01 10:10:39;;;;;;;;;47.25;35.75;;;;;21.61;25.85;101977.13;5063896;28;45529;-83
2022/03/01 10:13:05;;;;;;;;;44.00;38.25;;;;;22.68;24.06;101977.59;5084973;27;45334;-83
2022/03/01 10:15:32;;;;;;;;;46.75;37.75;;;;;23.36;23.55;102009.13;5100922;27;45390;-80
2022/03/01 10:17:59;;;;;;;;;43.25;35.50;;;;;24.25;23.03;102005.81;5076970;27;45464;-75
2022/03/01 10:20:24;;;;;;;;;46.25;36.50;;;;;24.85;22.16;102010.31;5077078;28;46640;-82
2022/03/01 10:22:52;;;;;;;;;39.25;34.25;;;;;24.33;22.28;102008.31;5061334;28;45290;-75
2022/03/01 10:25:21;;;;;;;;;34.00;32.25;;;;;25.93;20.98;102005.75;5088354;27;45430;-79
2022/03/01 10:27:48;;;;;;;;;45.25;37.25;;;;;26.33;19.95;101964.63;5100492;27;45450;-83
2022/03/01 10:30:22;;;;;;;;;35.33;31.33;;;;;27.65;18.22;101997.13;5082347;27;46129;-81
2022/03/01 10:32:47;;;;;;;;;33.00;31.00;;;;;27.11;19.97;101988.59;5085063;27;45378;-81
2022/03/01 10:35:12;;;;;;;;;42.00;36.67;;;;;27.39;18.57;101996.41;5074287;28;46099;-83
2022/03/01 10:37:39;;;;;;;;;40.67;35.33;;;;;27.83;17.56;101990.91;5069872;28;45536;-81
2022/03/01 10:40:23;;;;;;;;;38.67;33.00;;;;;27.71;17.52;101958.94;5074470;27;46091;-79
2022/03/01 10:43:12;;;;;;;;;40.67;34.33;;;;;26.18;18.64;101983.25;5067438;27;45549;-79
2022/03/01 10:45:39;;;;;;;;;40.67;36.00;;;;;24.68;20.67;101981.19;5072411;28;45537;-80
2022/03/01 10:48:07;;;;;;;;;36.33;33.33;;;;;22.99;21.42;101976.00;5080416;27;45466;-77
2022/03/01 10:50:32;;;;;;;;;35.33;32.67;;;;;21.68;23.83;101986.81;5090933;27;47498;-80
2022/03/01 10:52:59;;;;;;;;;38.00;32.67;;;;;20.61;23.98;101982.31;5067191;28;45370;-76
2022/03/01 10:55:28;;;;;;;;;31.00;30.33;;;;;19.64;25.67;101943.38;5077278;27;46650;-77
2022/03/01 10:58:04;;;;;;;;;29.33;27.67;;;;;18.84;26.67;101987.69;5078441;28;45422;-76
2022/03/01 11:00:32;;;;;;;;;27.33;21.67;;;;;17.79;27.49;101980.16;5075838;27;46361;-79
2022/03/01 11:02:57;;;;;;;;;29.67;27.00;;;;;16.39;29.26;101941.91;5079227;28;45445;-75
2022/03/01 11:05:23;;;;;;;;;26.75;25.00;;;;;16.40;30.09;101959.63;5078996;27;45849;-76
2022/03/01 11:07:50;;;;;;;;;32.50;32.00;;;;;16.25;30.48;101938.31;5085578;27;45492;-79
2022/03/01 11:10:18;;;;;;;;;27.75;26.00;;;;;16.47;29.88;101984.47;5095889;27;45503;-79
2022/03/01 11:12:46;;;;;;;;;26.25;23.25;;;;;16.54;29.71;101980.94;5082131;27;45343;-79